createdAt,value
2018-07-11T00:01:21.951Z,23.53
2018-07-11T00:03:52.446Z,28.17
2018-07-11T00:06:22.576Z,22.47
2018-07-11T00:08:51.709Z,40.13
2018-07-11T00:11:20.784Z,26.93
2018-07-11T00:13:49.905Z,28.77
2018-07-11T00:16:19.000Z,29.33
2018-07-11T00:18:48.078Z,32.23
2018-07-11T00:21:17.183Z,28.80
2018-07-11T00:23:46.256Z,34.77
2018-07-11T00:26:15.323Z,28.93
2018-07-11T00:28:44.391Z,26.27
2018-07-11T00:31:13.483Z,28.73
2018-07-11T00:33:42.596Z,27.90
2018-07-11T00:36:11.736Z,30.80
2018-07-11T00:38:40.753Z,25.40
2018-07-11T00:41:09.840Z,30.17
2018-07-11T00:43:38.910Z,27.07
2018-07-11T00:46:08.016Z,21.40
2018-07-11T00:48:37.095Z,26.33
2018-07-11T00:51:06.174Z,25.53
2018-07-11T00:53:36.152Z,25.00
2018-07-11T00:56:05.265Z,28.43
2018-07-11T00:58:38.528Z,27.17
2018-07-11T01:01:15.390Z,27.27
2018-07-11T01:03:50.623Z,32.53
2018-07-11T01:06:20.737Z,27.77
2018-07-11T01:08:50.383Z,27.10
2018-07-11T01:11:19.049Z,29.37
2018-07-11T01:13:48.656Z,29.70
2018-07-11T01:16:18.385Z,30.83
2018-07-11T01:18:48.233Z,26.07
2018-07-11T01:21:16.913Z,31.13
2018-07-11T01:23:45.582Z,33.83
2018-07-11T01:26:15.114Z,26.33
2018-07-11T01:28:43.782Z,27.07
2018-07-11T01:31:12.465Z,31.57
2018-07-11T01:33:41.164Z,32.67
2018-07-11T01:36:09.833Z,31.00
2018-07-11T01:38:38.507Z,27.50
2018-07-11T01:41:07.283Z,28.03
2018-07-11T01:43:35.955Z,31.13
2018-07-11T02:16:11.123Z,31.27
2018-07-11T02:18:39.799Z,30.27
2018-07-11T02:21:08.487Z,29.57
2018-07-11T02:23:38.026Z,28.60
2018-07-11T02:26:06.869Z,40.27
2018-07-11T02:28:35.551Z,35.83
2018-07-11T02:31:04.461Z,33.20
2018-07-11T02:33:33.144Z,40.03
2018-07-11T02:36:01.820Z,36.80
2018-07-11T02:38:30.497Z,39.10
2018-07-11T02:40:59.196Z,42.63
2018-07-11T02:43:27.879Z,34.73
2018-07-11T02:45:56.574Z,40.03
2018-07-11T02:48:25.247Z,45.93
2018-07-11T02:50:53.966Z,40.43
2018-07-11T02:53:24.078Z,44.10
2018-07-11T02:55:53.371Z,37.70
2018-07-11T02:58:22.051Z,34.07
2018-07-11T03:00:50.835Z,35.47
2018-07-11T03:03:19.984Z,42.90
2018-07-11T03:05:48.664Z,38.67
2018-07-11T03:08:18.252Z,39.33
2018-07-11T03:10:47.212Z,34.53
2018-07-11T03:13:18.602Z,42.73
2018-07-11T03:15:47.282Z,36.10
2018-07-11T03:18:15.950Z,34.07
2018-07-11T03:20:44.638Z,37.57
2018-07-11T03:23:13.323Z,38.77
2018-07-11T03:25:42.007Z,45.47
2018-07-11T03:28:10.682Z,38.43
2018-07-11T03:30:39.365Z,45.67
2018-07-11T03:33:08.054Z,42.77
2018-07-11T03:35:36.747Z,44.43
2018-07-11T03:38:05.438Z,40.30
2018-07-11T03:40:34.108Z,42.07
2018-07-11T03:43:02.799Z,42.73
2018-07-11T03:45:31.491Z,42.13
2018-07-11T03:48:00.183Z,43.10
2018-07-11T03:50:28.890Z,38.20
2018-07-11T03:52:57.571Z,54.13
2018-07-11T03:55:26.259Z,39.13
2018-07-11T03:57:54.944Z,36.57
2018-07-11T04:00:25.360Z,37.60
2018-07-11T04:02:54.280Z,38.43
2018-07-11T04:05:22.982Z,35.27
2018-07-11T04:07:51.680Z,35.77
2018-07-11T04:10:20.364Z,45.10
2018-07-11T04:12:50.647Z,42.63
2018-07-11T04:15:19.328Z,49.20
2018-07-11T04:17:47.995Z,36.87
2018-07-11T04:20:16.675Z,35.17
2018-07-11T04:22:45.344Z,35.40
2018-07-11T04:25:14.019Z,40.43
2018-07-11T04:27:42.714Z,30.33
2018-07-11T04:30:11.414Z,37.57
2018-07-11T04:32:40.139Z,30.50
2018-07-11T04:35:08.835Z,35.30
2018-07-11T04:37:37.567Z,32.73
2018-07-11T04:40:06.505Z,36.70
2018-07-11T04:42:35.271Z,30.90
2018-07-11T04:45:03.907Z,29.03
2018-07-11T04:47:32.643Z,32.03
2018-07-11T04:50:01.330Z,28.50
2018-07-11T04:52:29.994Z,28.87
2018-07-11T04:54:58.694Z,24.53
2018-07-11T04:57:27.369Z,31.33
2018-07-11T04:59:56.056Z,27.00
2018-07-11T05:02:24.747Z,22.17
2018-07-11T05:04:53.535Z,27.20
2018-07-11T05:07:22.132Z,25.93
2018-07-11T05:09:50.806Z,31.80
2018-07-11T05:12:19.490Z,26.57
2018-07-11T05:14:48.190Z,19.93
2018-07-11T05:17:16.879Z,29.13
2018-07-11T05:19:45.551Z,28.40
2018-07-11T05:22:14.227Z,29.17
2018-07-11T05:24:42.919Z,23.73
2018-07-11T05:27:11.703Z,25.90
2018-07-11T05:29:40.394Z,21.93
2018-07-11T05:32:09.079Z,18.00
2018-07-11T05:34:37.763Z,23.03
2018-07-11T05:37:06.431Z,23.23
2018-07-11T05:39:35.144Z,15.73
2018-07-11T05:42:03.808Z,20.60
2018-07-11T05:44:32.510Z,17.03
2018-07-11T05:47:05.287Z,21.40
2018-07-11T05:49:34.510Z,18.70
2018-07-11T05:52:03.786Z,19.20
2018-07-11T05:54:33.602Z,20.30
2018-07-11T06:00:02.069Z,20.30
2018-07-11T06:02:30.758Z,17.30
2018-07-11T06:04:59.390Z,18.80
2018-07-11T06:07:28.065Z,19.40
2018-07-11T06:09:56.756Z,18.13
2018-07-11T06:12:25.451Z,18.17
2018-07-11T06:14:54.144Z,20.93
2018-07-11T06:17:22.800Z,15.30
2018-07-11T06:19:51.482Z,17.73
2018-07-11T06:22:20.183Z,18.47
2018-07-11T06:24:48.951Z,13.80
2018-07-11T06:27:17.647Z,17.30
2018-07-11T06:29:46.334Z,17.53
2018-07-11T06:32:15.047Z,18.90
2018-07-11T06:34:43.732Z,16.83
2018-07-11T06:37:12.406Z,16.30
2018-07-11T06:39:41.106Z,15.03
2018-07-11T06:42:09.771Z,15.37
2018-07-11T06:44:38.459Z,16.97
2018-07-11T06:47:13.043Z,18.50
2018-07-11T06:49:42.336Z,21.10
2018-07-11T06:52:11.045Z,15.73
2018-07-11T06:54:39.663Z,22.37
2018-07-11T06:57:08.551Z,14.50
2018-07-11T06:59:37.250Z,12.30
2018-07-11T07:16:03.593Z,17.60
2018-07-11T07:18:32.271Z,11.67
2018-07-11T07:21:00.935Z,12.37
2018-07-11T07:23:29.627Z,11.23
2018-07-11T07:25:58.304Z,15.10
2018-07-11T07:28:26.994Z,12.33
2018-07-11T07:30:55.671Z,10.77
2018-07-11T07:33:24.359Z,8.47
2018-07-11T07:35:53.026Z,11.30
2018-07-11T07:38:21.695Z,12.53
2018-07-11T07:40:50.450Z,14.50
2018-07-11T07:43:19.092Z,12.07
2018-07-11T07:45:47.774Z,13.27
2018-07-11T07:48:16.483Z,15.73
2018-07-11T07:50:45.162Z,10.60
2018-07-11T07:53:13.851Z,10.50
2018-07-11T07:55:42.543Z,12.17
2018-07-11T07:58:11.214Z,12.57
2018-07-11T08:00:39.896Z,8.67
2018-07-11T08:03:08.593Z,10.97
2018-07-11T08:05:37.335Z,11.83
2018-07-11T08:08:06.011Z,8.13
2018-07-11T08:10:34.659Z,11.03
2018-07-11T08:13:03.386Z,7.77
2018-07-11T08:15:32.064Z,8.90
2018-07-11T08:18:00.726Z,8.10
2018-07-11T08:20:29.394Z,6.60
2018-07-11T08:23:13.550Z,7.63
2018-07-11T08:25:48.163Z,5.93
2018-07-11T08:29:20.262Z,7.50
2018-07-11T08:31:55.206Z,5.83
2018-07-11T08:35:39.452Z,5.83
2018-07-11T08:38:19.600Z,6.97
2018-07-11T08:41:06.516Z,4.93
2018-07-11T08:43:50.799Z,4.80
2018-07-11T08:48:38.059Z,4.97
2018-07-11T08:53:15.195Z,6.10
2018-07-11T08:57:02.728Z,7.23
2018-07-11T09:00:42.755Z,8.33
2018-07-11T09:03:39.379Z,7.37
2018-07-11T09:32:36.724Z,5.27
2018-07-11T09:35:05.841Z,6.10
2018-07-11T09:37:34.968Z,5.63
2018-07-11T09:40:03.998Z,6.23
2018-07-11T09:42:33.079Z,6.63
2018-07-11T09:45:02.204Z,6.13
2018-07-11T09:47:31.272Z,4.67
2018-07-11T09:50:00.347Z,4.67
2018-07-11T09:52:29.417Z,4.20
2018-07-11T09:54:58.503Z,5.17
2018-07-11T09:57:27.689Z,3.97
2018-07-11T09:59:57.082Z,5.80
2018-07-11T10:02:26.269Z,4.70
2018-07-11T10:04:55.363Z,7.53
2018-07-11T10:07:24.450Z,5.50
2018-07-11T10:09:53.534Z,3.53
2018-07-11T10:12:22.660Z,8.33
2018-07-11T10:14:51.665Z,5.20
2018-07-11T10:17:20.749Z,5.37
2018-07-11T10:19:49.864Z,6.67
2018-07-11T10:22:18.936Z,5.27
2018-07-11T10:24:48.047Z,10.47
2018-07-11T10:27:17.111Z,5.23
2018-07-11T10:29:46.180Z,5.00
2018-07-11T10:32:15.276Z,4.93
2018-07-11T10:34:44.369Z,3.63
2018-07-11T10:37:13.477Z,5.87
2018-07-11T10:39:42.609Z,4.20
2018-07-11T10:42:13.813Z,6.20
2018-07-11T10:44:44.460Z,6.30
2018-07-11T10:47:14.069Z,7.43
2018-07-11T11:03:29.843Z,7.00
2018-07-11T11:05:58.936Z,7.20
2018-07-11T11:08:28.756Z,4.80
2018-07-11T11:10:57.839Z,8.77
2018-07-11T11:13:27.068Z,7.90
2018-07-11T11:15:56.652Z,7.97
2018-07-11T11:18:26.055Z,6.57
2018-07-11T11:20:56.091Z,9.87
2018-07-11T11:23:25.166Z,5.77
2018-07-11T11:25:54.236Z,6.80
2018-07-11T11:28:23.317Z,8.37
2018-07-11T11:30:52.392Z,5.90
2018-07-11T11:33:21.467Z,7.63
2018-07-11T11:35:50.560Z,6.87
2018-07-11T11:38:19.642Z,7.90
2018-07-11T11:40:48.760Z,6.83
2018-07-11T11:43:17.897Z,6.00
2018-07-11T11:45:46.976Z,11.00
2018-07-11T11:48:16.044Z,7.03
2018-07-11T11:50:45.164Z,9.50
2018-07-11T11:53:14.266Z,5.97
2018-07-11T11:55:43.364Z,8.17
2018-07-11T11:58:12.434Z,5.90
2018-07-11T12:00:41.544Z,9.23
2018-07-11T12:03:10.619Z,8.03
2018-07-11T12:05:39.722Z,6.10
2018-07-11T12:08:08.794Z,9.87
2018-07-11T12:10:37.889Z,5.90
2018-07-11T12:13:06.959Z,7.07
2018-07-11T12:15:36.044Z,7.00
2018-07-11T12:18:05.140Z,6.53
2018-07-11T12:20:34.213Z,5.50
2018-07-11T12:23:03.276Z,7.60
2018-07-11T12:25:32.360Z,8.17
2018-07-11T12:28:01.410Z,7.77
2018-07-11T12:30:30.519Z,8.40
2018-07-11T12:32:59.592Z,4.50
2018-07-11T12:35:28.659Z,5.60
2018-07-11T12:37:57.820Z,5.40
2018-07-11T12:40:26.909Z,7.73
2018-07-11T12:42:56.005Z,8.90
2018-07-11T12:45:25.064Z,8.20
2018-07-11T12:47:59.590Z,10.33
2018-07-11T12:50:28.648Z,8.63
2018-07-11T12:52:57.467Z,4.07
2018-07-11T12:55:26.405Z,5.73
2018-07-11T12:57:55.476Z,7.80
2018-07-11T13:00:24.560Z,5.30
2018-07-11T13:02:53.908Z,6.13
2018-07-11T13:05:22.964Z,9.47
2018-07-11T13:07:52.186Z,10.33
2018-07-11T13:10:21.257Z,7.80
2018-07-11T13:12:50.321Z,11.63
2018-07-11T13:15:19.411Z,6.63
2018-07-11T13:17:48.480Z,6.57
2018-07-11T13:20:17.650Z,7.87
2018-07-11T13:22:46.751Z,7.70
2018-07-11T13:25:15.839Z,10.23
2018-07-11T13:27:44.932Z,8.00
2018-07-11T13:30:14.045Z,7.90
2018-07-11T14:05:15.567Z,4.63
2018-07-11T14:07:44.701Z,7.63
2018-07-11T14:10:13.811Z,6.97
2018-07-11T14:12:42.907Z,7.40
2018-07-11T14:15:12.014Z,7.27
2018-07-11T14:17:41.108Z,7.87
2018-07-11T14:20:10.276Z,6.73
2018-07-11T14:22:39.733Z,8.07
2018-07-11T14:25:08.812Z,3.83
2018-07-11T14:27:41.152Z,8.13
2018-07-11T14:30:10.504Z,10.70
2018-07-11T14:32:44.613Z,7.90
2018-07-11T14:35:14.208Z,6.63
2018-07-11T14:37:43.382Z,8.07
2018-07-11T14:40:12.817Z,7.77
2018-07-11T14:42:42.237Z,6.83
2018-07-11T14:45:11.333Z,6.30
2018-07-11T14:47:45.726Z,9.63
2018-07-11T14:50:14.802Z,3.67
2018-07-11T14:52:43.884Z,6.73
2018-07-11T14:55:13.008Z,6.73
2018-07-11T14:57:42.108Z,5.70
2018-07-11T15:00:11.202Z,7.67
2018-07-11T15:02:40.324Z,7.33
2018-07-11T15:05:09.436Z,8.60
2018-07-11T15:07:38.530Z,7.53
2018-07-11T15:10:07.803Z,10.00
2018-07-11T15:12:36.884Z,4.97
2018-07-11T15:15:06.009Z,8.40
2018-07-11T15:17:35.102Z,11.37
2018-07-11T15:20:04.295Z,7.07
2018-07-11T15:22:33.419Z,6.03
2018-07-11T15:25:02.527Z,6.57
2018-07-11T15:27:31.774Z,7.20
2018-07-11T15:30:00.637Z,6.17
2018-07-11T15:32:29.637Z,5.77
2018-07-11T15:34:58.723Z,9.97
2018-07-11T15:37:27.800Z,7.50
2018-07-11T15:39:57.553Z,7.27
2018-07-11T15:42:26.695Z,7.80
2018-07-11T15:44:56.352Z,7.83
2018-07-11T15:47:25.874Z,9.17
2018-07-11T15:49:54.976Z,9.03
2018-07-11T15:52:25.395Z,11.20
2018-07-11T15:54:58.220Z,6.53
2018-07-11T15:57:38.978Z,7.33
2018-07-11T16:00:11.182Z,9.80
2018-07-11T16:02:44.634Z,7.80
2018-07-11T16:05:19.242Z,8.97
2018-07-11T16:07:49.475Z,10.57
2018-07-11T16:10:20.374Z,10.70
2018-07-11T16:12:49.360Z,10.43
2018-07-11T16:15:18.513Z,9.17
2018-07-11T16:17:47.585Z,8.63
2018-07-11T16:20:16.697Z,14.57
2018-07-11T16:22:45.797Z,16.87
2018-07-11T16:25:14.880Z,12.00
2018-07-11T16:27:44.008Z,10.87
2018-07-11T16:30:13.113Z,13.27
2018-07-11T16:32:42.288Z,8.60
2018-07-11T16:35:11.413Z,11.47
2018-07-11T16:37:40.513Z,10.57
2018-07-11T16:40:09.628Z,13.07
2018-07-11T16:42:38.747Z,12.27
2018-07-11T16:45:07.967Z,9.87
2018-07-11T16:47:37.154Z,12.63
2018-07-11T17:18:53.271Z,16.50
2018-07-11T17:21:58.912Z,12.77
2018-07-11T17:24:29.575Z,14.50
2018-07-11T17:26:59.040Z,11.73
2018-07-11T17:29:29.171Z,14.93
2018-07-11T17:32:05.631Z,11.60
2018-07-11T17:34:35.794Z,17.80
2018-07-11T17:37:06.173Z,12.00
2018-07-11T17:39:50.930Z,14.97
2018-07-11T17:42:23.730Z,12.30
2018-07-11T17:45:00.680Z,15.77
2018-07-11T17:47:31.515Z,14.00
2018-07-11T17:50:04.869Z,11.47
2018-07-11T17:53:44.653Z,12.43
2018-07-11T17:56:14.570Z,15.33
2018-07-11T17:58:51.973Z,12.00
2018-07-11T18:01:25.829Z,15.40
2018-07-11T18:04:02.241Z,15.57
2018-07-11T18:06:40.068Z,17.47
2018-07-11T18:09:11.189Z,22.83
2018-07-11T18:11:54.212Z,14.73
2018-07-11T18:14:34.795Z,15.50
2018-07-11T18:17:45.272Z,16.00
2018-07-11T18:21:23.971Z,15.47
2018-07-11T18:24:08.406Z,14.77
2018-07-11T18:26:51.933Z,16.23
2018-07-11T18:29:31.894Z,10.30
2018-07-11T18:33:13.859Z,13.27
2018-07-11T18:37:59.934Z,14.03
2018-07-11T18:40:41.599Z,20.40
2018-07-11T18:43:21.852Z,16.13
2018-07-11T18:46:33.071Z,19.53
2018-07-11T18:49:14.360Z,18.47
2018-07-11T18:51:56.635Z,18.90
2018-07-11T18:54:39.697Z,14.07
2018-07-11T18:57:13.591Z,16.73
2018-07-11T19:02:02.452Z,18.47
2018-07-11T19:04:44.401Z,18.17
2018-07-11T19:07:33.571Z,15.30
2018-07-11T19:10:05.599Z,19.63
2018-07-11T19:12:45.195Z,17.83
2018-07-11T19:15:16.941Z,18.67
2018-07-11T19:18:08.468Z,23.00
2018-07-11T19:21:11.529Z,21.07
2018-07-11T19:23:51.973Z,22.20
2018-07-11T19:26:32.360Z,15.93
2018-07-11T19:29:10.872Z,15.53
2018-07-11T19:31:49.099Z,16.90
2018-07-11T19:34:30.489Z,18.17
2018-07-11T19:37:04.740Z,18.00
2018-07-11T19:39:44.389Z,13.90
2018-07-11T19:44:28.268Z,15.77
2018-07-11T19:47:11.088Z,18.90
2018-07-11T19:51:59.137Z,24.07
2018-07-11T19:55:42.137Z,19.30
2018-07-11T19:58:10.991Z,18.30
2018-07-11T20:00:39.685Z,22.20
2018-07-11T20:03:08.371Z,25.10
2018-07-11T20:05:37.083Z,19.03
2018-07-11T20:08:05.783Z,20.47
2018-07-11T20:10:34.503Z,18.63
2018-07-11T20:13:03.227Z,18.10
2018-07-11T20:15:31.933Z,20.33
2018-07-11T20:18:00.644Z,16.73
2018-07-11T20:20:29.343Z,20.50
2018-07-11T20:22:58.027Z,18.93
2018-07-11T20:25:26.724Z,16.63
2018-07-11T20:27:55.453Z,18.63
2018-07-11T20:30:24.211Z,15.17
2018-07-11T20:32:52.871Z,18.00
2018-07-11T21:49:28.869Z,16.13
2018-07-11T21:51:57.574Z,15.37
2018-07-11T21:54:26.328Z,26.77
2018-07-11T21:56:55.019Z,27.47
2018-07-11T21:59:23.716Z,26.33
2018-07-11T22:01:52.407Z,20.87
2018-07-11T22:04:21.095Z,23.00
2018-07-11T22:06:49.783Z,32.60
2018-07-11T22:09:18.531Z,29.20
2018-07-11T22:11:47.255Z,26.63
2018-07-11T22:14:15.942Z,23.50
2018-07-11T22:16:44.630Z,22.73
2018-07-11T22:19:13.330Z,21.33
2018-07-11T22:21:41.532Z,25.13
2018-07-11T22:24:09.511Z,22.13
2018-07-11T22:26:37.490Z,20.63
2018-07-11T22:29:05.455Z,24.53
2018-07-11T22:31:33.424Z,22.97
2018-07-11T22:34:01.421Z,25.53
2018-07-11T22:36:29.375Z,26.53
2018-07-11T22:38:57.336Z,21.87
2018-07-11T22:41:25.340Z,25.17
2018-07-11T22:43:53.348Z,20.07
2018-07-11T22:46:21.342Z,23.60
2018-07-11T22:48:49.305Z,24.53
2018-07-11T22:51:17.267Z,22.77
2018-07-11T22:53:45.226Z,22.47
2018-07-11T22:56:13.319Z,20.83
2018-07-11T22:58:41.381Z,26.93
2018-07-11T23:01:09.355Z,23.30
2018-07-11T23:03:37.332Z,22.80
2018-07-11T23:06:05.295Z,26.13
2018-07-11T23:08:33.315Z,24.70
2018-07-11T23:11:01.325Z,28.53
2018-07-11T23:13:29.303Z,19.73
2018-07-11T23:15:57.566Z,22.90
2018-07-11T23:18:25.577Z,23.57
2018-07-11T23:20:53.584Z,21.47
2018-07-11T23:23:21.555Z,24.07
2018-07-11T23:25:49.531Z,25.27
2018-07-11T23:28:17.500Z,28.67
2018-07-11T23:30:45.483Z,23.93
2018-07-11T23:33:13.464Z,23.33
2018-07-11T23:35:41.444Z,23.43
2018-07-11T23:38:09.392Z,17.73
2018-07-11T23:40:37.341Z,25.10
2018-07-11T23:43:05.344Z,26.93
2018-07-11T23:45:33.287Z,24.60
2018-07-11T23:48:01.300Z,24.27
2018-07-11T23:50:29.255Z,16.90
2018-07-11T23:52:57.206Z,22.83
2018-07-11T23:55:25.163Z,22.17
2018-07-11T23:57:53.155Z,25.57
